createdAt,value
2022-11-24T00:00:47.247Z,6.30
2022-11-24T00:03:58.185Z,6.30
2022-11-24T00:07:02.608Z,6.30
2022-11-24T00:10:07.478Z,6.20
2022-11-24T00:13:12.084Z,6.20
2022-11-24T00:16:16.047Z,6.10
2022-11-24T00:19:20.543Z,6.10
2022-11-24T00:22:25.300Z,6.10
2022-11-24T00:25:29.336Z,6.10
2022-11-24T00:28:34.029Z,6.00
2022-11-24T00:31:39.970Z,6.00
2022-11-24T00:34:44.130Z,6.00
2022-11-24T00:37:48.800Z,6.00
2022-11-24T00:40:53.681Z,6.00
2022-11-24T00:43:58.762Z,6.00
2022-11-24T00:47:03.443Z,6.00
2022-11-24T00:50:08.281Z,6.00
2022-11-24T00:53:12.540Z,6.10
2022-11-24T00:56:17.219Z,6.10
2022-11-24T00:59:21.836Z,6.10
2022-11-24T01:02:26.607Z,6.20
2022-11-24T01:05:30.904Z,6.20
2022-11-24T01:08:36.529Z,6.30
2022-11-24T01:12:00.079Z,6.30
2022-11-24T01:15:04.577Z,6.40
2022-11-24T01:18:09.789Z,6.40
2022-11-24T01:21:15.252Z,6.40
2022-11-24T01:24:19.811Z,6.40
2022-11-24T01:27:24.367Z,6.40
2022-11-24T01:30:29.115Z,6.40
2022-11-24T01:33:34.058Z,6.40
2022-11-24T01:36:38.245Z,6.50
2022-11-24T01:39:42.955Z,6.50
2022-11-24T01:42:51.347Z,6.50
2022-11-24T01:45:55.943Z,6.50
2022-11-24T01:49:28.030Z,6.40
2022-11-24T01:52:40.598Z,6.50
2022-11-24T01:55:45.516Z,6.50
2022-11-24T01:58:52.098Z,6.60
2022-11-24T02:01:56.895Z,6.50
2022-11-24T02:05:21.659Z,6.50
2022-11-24T02:08:31.139Z,6.50
2022-11-24T02:11:37.162Z,6.50
2022-11-24T02:14:43.161Z,6.50
2022-11-24T02:17:47.788Z,6.60
2022-11-24T02:20:52.449Z,6.60
2022-11-24T02:24:06.254Z,6.60
2022-11-24T02:27:11.306Z,6.60
2022-11-24T02:30:16.200Z,6.50
2022-11-24T02:33:21.844Z,6.60
2022-11-24T02:36:26.552Z,6.60
2022-11-24T02:39:31.207Z,6.60
2022-11-24T02:42:42.787Z,6.50
2022-11-24T02:45:47.677Z,6.50
2022-11-24T02:48:52.114Z,6.50
2022-11-24T02:51:56.928Z,6.50
2022-11-24T02:55:01.006Z,6.50
2022-11-24T02:58:05.584Z,6.50
2022-11-24T03:01:09.541Z,6.40
2022-11-24T03:04:14.247Z,6.50
2022-11-24T03:07:19.284Z,6.50
2022-11-24T03:10:24.601Z,6.40
2022-11-24T03:13:29.156Z,6.50
2022-11-24T03:16:33.438Z,6.40
2022-11-24T03:19:38.028Z,6.40
2022-11-24T03:22:42.323Z,6.40
2022-11-24T03:25:46.695Z,6.40
2022-11-24T03:28:55.406Z,6.40
2022-11-24T03:31:59.642Z,6.40
2022-11-24T03:35:04.535Z,6.40
2022-11-24T03:38:09.124Z,6.40
2022-11-24T03:41:13.520Z,6.40
2022-11-24T03:44:18.200Z,6.40
2022-11-24T03:47:22.630Z,6.40
2022-11-24T03:50:26.616Z,6.40
2022-11-24T03:53:31.377Z,6.40
2022-11-24T03:56:35.745Z,6.40
2022-11-24T03:59:40.150Z,6.40
2022-11-24T04:02:44.724Z,6.40
2022-11-24T04:05:49.490Z,6.40
2022-11-24T04:08:54.158Z,6.40
2022-11-24T04:12:17.321Z,6.40
2022-11-24T04:15:21.553Z,6.40
2022-11-24T04:18:25.971Z,6.40
2022-11-24T04:21:30.488Z,6.40
2022-11-24T04:24:35.512Z,6.40
2022-11-24T04:27:39.900Z,6.40
2022-11-24T04:30:45.160Z,6.40
2022-11-24T04:33:49.604Z,6.50
2022-11-24T04:36:54.102Z,6.50
2022-11-24T04:39:58.602Z,6.40
2022-11-24T04:43:03.604Z,6.40
2022-11-24T04:46:10.230Z,6.40
2022-11-24T04:49:14.884Z,6.40
2022-11-24T04:52:20.582Z,6.40
2022-11-24T04:55:25.183Z,6.50
2022-11-24T04:58:29.164Z,6.40
2022-11-24T05:01:34.152Z,6.50
2022-11-24T05:04:38.676Z,6.50
2022-11-24T05:07:43.102Z,6.50
2022-11-24T05:10:47.425Z,6.50
2022-11-24T05:13:53.034Z,6.50
2022-11-24T05:16:57.507Z,6.50
2022-11-24T05:20:02.523Z,6.50
2022-11-24T05:23:08.212Z,6.50
2022-11-24T05:26:12.665Z,6.50
2022-11-24T05:29:16.955Z,6.50
2022-11-24T05:32:21.249Z,6.50
2022-11-24T05:35:25.424Z,6.50
2022-11-24T05:38:30.485Z,6.50
2022-11-24T05:41:34.685Z,6.60
2022-11-24T05:44:39.157Z,6.60
2022-11-24T05:47:43.653Z,6.60
2022-11-24T05:50:52.844Z,6.60
2022-11-24T05:53:57.415Z,6.60
2022-11-24T05:57:02.049Z,6.60
2022-11-24T06:00:07.498Z,6.60
2022-11-24T06:03:16.483Z,6.60
2022-11-24T06:06:21.057Z,6.60
2022-11-24T06:09:25.355Z,6.60
2022-11-24T06:12:29.846Z,6.60
2022-11-24T06:15:35.186Z,6.70
2022-11-24T06:18:39.622Z,6.70
2022-11-24T06:21:44.259Z,6.70
2022-11-24T06:24:50.520Z,6.70
2022-11-24T06:27:54.958Z,6.70
2022-11-24T06:31:03.266Z,6.60
2022-11-24T06:34:08.201Z,6.60
2022-11-24T06:37:12.337Z,6.70
2022-11-24T06:40:16.842Z,6.60
2022-11-24T06:43:23.226Z,6.70
2022-11-24T06:46:28.042Z,6.70
2022-11-24T06:49:32.027Z,6.70
2022-11-24T06:52:36.077Z,6.60
2022-11-24T06:55:40.540Z,6.60
2022-11-24T06:58:46.432Z,6.70
2022-11-24T07:01:51.064Z,6.60
2022-11-24T07:04:55.668Z,6.60
2022-11-24T07:08:00.513Z,6.70
2022-11-24T07:11:06.209Z,6.60
2022-11-24T07:14:10.824Z,6.60
2022-11-24T07:17:14.936Z,6.60
2022-11-24T07:20:19.001Z,6.70
2022-11-24T07:23:23.696Z,6.60
2022-11-24T07:26:28.195Z,6.60
2022-11-24T07:29:32.400Z,6.60
2022-11-24T07:32:36.719Z,6.50
2022-11-24T07:35:40.924Z,6.50
2022-11-24T07:38:45.179Z,6.50
2022-11-24T07:41:49.337Z,6.50
2022-11-24T07:44:53.697Z,6.50
2022-11-24T07:47:58.684Z,6.50
2022-11-24T07:51:03.517Z,6.50
2022-11-24T07:54:08.609Z,6.50
2022-11-24T07:57:13.025Z,6.40
2022-11-24T08:00:17.758Z,6.40
2022-11-24T08:03:22.573Z,6.40
2022-11-24T08:06:38.668Z,6.30
2022-11-24T08:09:44.868Z,6.30
2022-11-24T08:12:49.472Z,6.30
2022-11-24T08:15:53.408Z,6.30
2022-11-24T08:18:57.657Z,6.30
2022-11-24T08:22:01.809Z,6.30
2022-11-24T08:25:06.706Z,6.30
2022-11-24T08:28:10.730Z,6.30
2022-11-24T08:31:16.836Z,6.30
2022-11-24T08:34:20.855Z,6.30
2022-11-24T08:37:26.338Z,6.30
2022-11-24T08:40:30.548Z,6.30
2022-11-24T08:43:35.108Z,6.30
2022-11-24T08:46:39.352Z,6.20
2022-11-24T08:49:43.834Z,6.20
2022-11-24T08:52:47.936Z,6.20
2022-11-24T08:55:52.699Z,6.30
2022-11-24T08:58:58.001Z,6.30
2022-11-24T09:02:02.359Z,6.20
2022-11-24T09:05:22.511Z,6.30
2022-11-24T09:08:31.408Z,6.20
2022-11-24T09:11:35.662Z,6.30
2022-11-24T09:14:40.082Z,6.30
2022-11-24T09:17:44.058Z,6.30
2022-11-24T09:20:48.112Z,6.20
2022-11-24T09:23:53.727Z,6.20
2022-11-24T09:26:58.207Z,6.20
2022-11-24T09:30:03.208Z,6.20
2022-11-24T09:33:08.968Z,6.20
2022-11-24T09:36:14.102Z,6.20
2022-11-24T09:39:18.456Z,6.20
2022-11-24T09:42:28.819Z,6.20
2022-11-24T09:46:11.202Z,6.20
2022-11-24T09:49:29.467Z,6.20
2022-11-24T09:52:36.365Z,6.20
2022-11-24T09:55:44.984Z,6.10
2022-11-24T09:58:54.241Z,6.20
2022-11-24T10:02:00.155Z,6.10
2022-11-24T10:05:05.180Z,6.10
2022-11-24T10:08:18.448Z,6.10
2022-11-24T10:11:30.836Z,6.10
2022-11-24T10:14:37.973Z,6.10
2022-11-24T10:17:47.199Z,6.00
2022-11-24T10:21:00.784Z,6.00
2022-11-24T10:24:08.434Z,6.00
2022-11-24T10:27:19.764Z,6.00
2022-11-24T10:30:24.078Z,6.00
2022-11-24T10:33:30.845Z,6.00
2022-11-24T10:36:50.871Z,5.90
2022-11-24T10:40:49.227Z,5.90
2022-11-24T10:43:48.880Z,5.80
2022-11-24T10:46:53.299Z,5.80
2022-11-24T10:50:00.794Z,5.90
2022-11-24T10:53:11.432Z,5.80
2022-11-24T10:56:15.870Z,5.80
2022-11-24T10:59:30.702Z,5.90
2022-11-24T11:02:36.240Z,5.90
2022-11-24T11:05:42.786Z,5.90
2022-11-24T11:08:47.347Z,5.80
2022-11-24T11:11:53.147Z,5.80
2022-11-24T11:14:57.183Z,5.90
2022-11-24T11:18:01.426Z,6.00
2022-11-24T11:21:05.520Z,5.90
2022-11-24T11:24:18.101Z,6.00
2022-11-24T11:27:24.739Z,6.00
2022-11-24T11:34:09.381Z,6.00
2022-11-24T11:37:17.068Z,6.10
2022-11-24T11:40:27.790Z,6.10
2022-11-24T11:43:34.362Z,6.10
2022-11-24T11:46:39.168Z,6.10
2022-11-24T11:49:44.515Z,6.10
2022-11-24T11:53:01.173Z,6.10
2022-11-24T11:56:05.828Z,6.20
2022-11-24T11:59:15.980Z,6.10
2022-11-24T12:02:29.662Z,6.10
2022-11-24T12:05:43.529Z,6.10
2022-11-24T12:09:17.873Z,6.10
2022-11-24T12:12:24.133Z,6.10
2022-11-24T12:15:47.318Z,6.00
2022-11-24T12:19:21.220Z,6.10
2022-11-24T12:22:46.795Z,6.10
2022-11-24T12:26:01.295Z,6.10
2022-11-24T12:29:08.494Z,6.00
2022-11-24T12:32:36.018Z,6.00
2022-11-24T12:35:43.396Z,6.00
2022-11-24T12:39:07.729Z,6.00
2022-11-24T12:42:20.846Z,6.00
2022-11-24T12:45:39.333Z,6.00
2022-11-24T12:48:49.861Z,6.10
2022-11-24T12:52:02.954Z,6.10
2022-11-24T12:55:12.624Z,6.10
2022-11-24T12:58:20.372Z,6.10
2022-11-24T13:01:35.514Z,6.10
2022-11-24T13:04:43.258Z,6.10
2022-11-24T13:07:48.993Z,6.10
2022-11-24T13:10:57.191Z,6.10
2022-11-24T13:14:06.518Z,6.10
2022-11-24T13:18:02.824Z,6.10
2022-11-24T13:21:25.889Z,6.20
2022-11-24T13:24:31.889Z,6.20
2022-11-24T13:27:40.606Z,6.20
2022-11-24T13:30:44.877Z,6.20
2022-11-24T13:33:48.889Z,6.30
2022-11-24T13:36:53.682Z,6.20
2022-11-24T13:39:58.013Z,6.30
2022-11-24T13:43:02.676Z,6.20
2022-11-24T13:46:09.611Z,6.20
2022-11-24T13:49:14.310Z,6.20
2022-11-24T13:52:37.636Z,6.20
2022-11-24T13:55:51.185Z,6.20
2022-11-24T13:58:59.632Z,6.20
2022-11-24T14:02:18.308Z,6.20
2022-11-24T14:05:23.673Z,6.10
2022-11-24T14:08:36.002Z,6.10
2022-11-24T14:11:40.944Z,6.10
2022-11-24T14:14:46.179Z,6.10
2022-11-24T14:17:50.412Z,6.10
2022-11-24T14:20:59.601Z,6.10
2022-11-24T14:24:09.726Z,6.20
2022-11-24T14:27:15.667Z,6.10
2022-11-24T14:30:21.314Z,6.10
2022-11-24T14:33:25.877Z,6.10
2022-11-24T14:36:29.862Z,6.10
2022-11-24T14:39:39.992Z,6.10
2022-11-24T14:42:49.523Z,6.10
2022-11-24T14:45:55.466Z,6.10
2022-11-24T14:48:59.400Z,6.10
2022-11-24T14:52:08.544Z,6.10
2022-11-24T14:55:24.931Z,6.10
2022-11-24T14:58:40.506Z,6.10
2022-11-24T15:01:46.759Z,6.10
2022-11-24T15:05:03.270Z,6.10
2022-11-24T15:08:11.221Z,6.10
2022-11-24T15:11:15.828Z,6.10
2022-11-24T15:14:31.299Z,6.10
2022-11-24T15:17:35.997Z,6.10
2022-11-24T15:20:44.376Z,6.10
2022-11-24T15:24:27.896Z,6.10
2022-11-24T15:27:32.388Z,6.10
2022-11-24T15:30:37.047Z,6.10
2022-11-24T15:33:42.151Z,6.10
2022-11-24T15:36:46.575Z,6.10
2022-11-24T15:39:51.139Z,6.10
2022-11-24T15:42:55.968Z,6.10
2022-11-24T15:46:01.025Z,6.10
2022-11-24T15:49:05.845Z,6.10
2022-11-24T15:52:09.912Z,6.10
2022-11-24T15:55:21.238Z,6.10
2022-11-24T15:58:25.599Z,6.10
2022-11-24T16:01:31.594Z,6.00
2022-11-24T16:04:35.985Z,6.10
2022-11-24T16:07:40.765Z,6.00
2022-11-24T16:10:45.464Z,6.10
2022-11-24T16:13:53.004Z,6.00
2022-11-24T16:16:58.109Z,6.10
2022-11-24T16:20:03.327Z,6.10
2022-11-24T16:23:07.889Z,6.00
2022-11-24T16:26:12.559Z,6.00
2022-11-24T16:29:16.954Z,6.00
2022-11-24T16:32:21.154Z,6.00
2022-11-24T16:35:26.141Z,6.00
2022-11-24T16:38:30.468Z,6.00
2022-11-24T16:41:34.750Z,6.00
2022-11-24T16:44:39.212Z,6.00
2022-11-24T16:47:43.570Z,6.00
2022-11-24T16:50:48.045Z,6.00
2022-11-24T16:53:57.071Z,6.00
2022-11-24T16:57:01.318Z,6.00
2022-11-24T17:00:05.876Z,6.00
2022-11-24T17:03:10.228Z,6.00
2022-11-24T17:06:17.849Z,6.00
2022-11-24T17:09:22.160Z,6.00
2022-11-24T17:12:27.047Z,6.00
2022-11-24T17:15:34.523Z,6.00
2022-11-24T17:18:41.617Z,6.00
2022-11-24T17:21:46.118Z,5.90
2022-11-24T17:24:50.012Z,6.00
2022-11-24T17:27:54.240Z,6.00
2022-11-24T17:30:58.489Z,6.00
2022-11-24T17:34:03.971Z,6.00
2022-11-24T17:37:08.258Z,6.00
2022-11-24T17:40:28.572Z,6.00
2022-11-24T17:43:33.193Z,6.00
2022-11-24T17:46:37.683Z,6.00
2022-11-24T17:49:42.018Z,6.00
2022-11-24T17:52:46.141Z,6.00
2022-11-24T17:55:50.216Z,5.90
2022-11-24T17:58:59.004Z,6.00
2022-11-24T18:02:03.521Z,6.00
2022-11-24T18:05:08.763Z,6.00
2022-11-24T18:08:13.498Z,6.00
2022-11-24T18:11:24.619Z,6.00
2022-11-24T18:14:33.364Z,5.90
2022-11-24T18:17:39.694Z,6.00
2022-11-24T18:20:52.561Z,5.90
2022-11-24T18:23:56.787Z,5.90
2022-11-24T18:27:00.890Z,5.90
2022-11-24T18:30:05.935Z,5.90
2022-11-24T18:33:10.162Z,5.90
2022-11-24T18:36:16.009Z,5.90
2022-11-24T18:39:20.475Z,5.90
2022-11-24T18:42:26.005Z,5.90
2022-11-24T18:45:30.568Z,5.90
2022-11-24T18:48:35.468Z,5.90
2022-11-24T18:51:39.647Z,5.90
2022-11-24T18:54:43.825Z,5.90
2022-11-24T18:57:48.112Z,5.90
2022-11-24T19:00:53.658Z,5.90
2022-11-24T19:03:59.166Z,5.90
2022-11-24T19:07:03.432Z,5.90
2022-11-24T19:10:08.130Z,5.90
2022-11-24T19:13:12.843Z,5.90
2022-11-24T19:16:18.059Z,5.90
2022-11-24T19:19:22.661Z,5.90
2022-11-24T19:22:26.863Z,5.90
2022-11-24T19:25:31.843Z,5.90
2022-11-24T19:28:35.954Z,5.90
2022-11-24T19:31:40.600Z,5.90
2022-11-24T19:34:44.939Z,5.90
2022-11-24T19:37:49.648Z,5.90
2022-11-24T19:40:59.431Z,5.90
2022-11-24T19:44:03.552Z,5.90
2022-11-24T19:47:08.254Z,5.90
2022-11-24T19:50:12.840Z,5.90
2022-11-24T19:53:16.830Z,5.90
2022-11-24T19:56:21.960Z,5.90
2022-11-24T19:59:26.465Z,5.90
2022-11-24T20:02:31.700Z,5.90
2022-11-24T20:05:35.809Z,6.00
2022-11-24T20:08:40.228Z,6.00
2022-11-24T20:11:44.990Z,6.00
2022-11-24T20:14:49.467Z,5.90
2022-11-24T20:17:53.532Z,6.00
2022-11-24T20:21:04.900Z,6.00
2022-11-24T20:24:09.305Z,6.00
2022-11-24T20:27:13.906Z,6.00
2022-11-24T20:30:17.881Z,6.00
2022-11-24T20:33:21.868Z,6.00
2022-11-24T20:36:27.608Z,6.00
2022-11-24T20:39:32.388Z,6.00
2022-11-24T20:42:37.357Z,6.00
2022-11-24T20:45:42.256Z,6.00
2022-11-24T20:48:46.417Z,6.00
2022-11-24T20:51:54.315Z,6.00
2022-11-24T20:55:00.338Z,6.00
2022-11-24T20:58:04.721Z,6.00
2022-11-24T21:01:13.009Z,6.00
2022-11-24T21:04:22.518Z,6.00
2022-11-24T21:07:26.976Z,6.00
2022-11-24T21:10:31.630Z,6.00
2022-11-24T21:13:36.492Z,6.00
2022-11-24T21:16:42.036Z,6.00
2022-11-24T21:19:46.762Z,6.00
2022-11-24T21:22:50.836Z,6.00
2022-11-24T21:26:03.446Z,6.00
2022-11-24T21:29:14.109Z,6.00
2022-11-24T21:32:18.568Z,6.00
2022-11-24T21:35:22.707Z,6.00
2022-11-24T21:38:27.104Z,6.10
2022-11-24T21:41:32.248Z,6.00
2022-11-24T21:44:36.987Z,6.10
2022-11-24T21:47:42.292Z,6.10
2022-11-24T21:50:46.743Z,6.10
2022-11-24T21:53:50.869Z,6.00
2022-11-24T21:56:55.469Z,6.00
2022-11-24T21:59:59.484Z,6.00
2022-11-24T22:03:03.669Z,6.00
2022-11-24T22:06:07.848Z,6.00
2022-11-24T22:09:17.611Z,6.10
2022-11-24T22:12:22.504Z,6.00
2022-11-24T22:15:26.527Z,6.00
2022-11-24T22:18:32.404Z,6.00
2022-11-24T22:21:37.207Z,6.00
2022-11-24T22:24:41.780Z,6.00
2022-11-24T22:27:45.974Z,6.00
2022-11-24T22:30:50.385Z,6.00
2022-11-24T22:33:55.191Z,6.00
2022-11-24T22:36:59.353Z,6.10
2022-11-24T22:40:03.778Z,6.00
2022-11-24T22:43:08.179Z,6.00
2022-11-24T22:46:16.887Z,6.00
2022-11-24T22:49:21.572Z,6.00
2022-11-24T22:52:25.592Z,6.00
2022-11-24T22:55:29.625Z,6.00
2022-11-24T22:58:34.097Z,6.00
2022-11-24T23:01:38.620Z,6.00
2022-11-24T23:04:42.451Z,6.00
2022-11-24T23:07:46.450Z,6.00
2022-11-24T23:10:51.063Z,6.00
2022-11-24T23:13:55.823Z,6.10
2022-11-24T23:17:00.740Z,6.00
2022-11-24T23:20:05.592Z,6.10
2022-11-24T23:23:09.727Z,6.10
2022-11-24T23:26:15.089Z,6.10
2022-11-24T23:29:19.431Z,6.00
2022-11-24T23:32:23.882Z,6.10
2022-11-24T23:35:28.496Z,6.10
2022-11-24T23:38:32.854Z,6.10
2022-11-24T23:41:37.359Z,6.00
2022-11-24T23:44:41.738Z,6.10
2022-11-24T23:47:45.838Z,6.00
2022-11-24T23:50:49.857Z,6.00
2022-11-24T23:53:54.876Z,6.00
2022-11-24T23:56:58.868Z,6.10
